sensor_id;sensor_type;location;lat;lon;timestamp;pressure;altitude;pressure_sealevel;temperature;humidity
63808;BME280;49961;43.970;22.868;2023-07-13T00:00:38;101237.09;;;26.40;100.00
63808;BME280;49961;43.970;22.868;2023-07-13T00:01:39;101246.13;;;26.39;100.00
63808;BME280;49961;43.970;22.868;2023-07-13T00:02:39;101250.06;;;26.30;100.00
63808;BME280;49961;43.970;22.868;2023-07-13T00:03:39;101231.06;;;26.14;100.00
63808;BME280;49961;43.970;22.868;2023-07-13T00:04:41;101171.63;;;25.70;100.00
63808;BME280;49961;43.970;22.868;2023-07-13T00:05:41;101261.50;;;26.19;100.00
63808;BME280;49961;43.970;22.868;2023-07-13T00:06:42;101208.00;;;25.77;100.00
63808;BME280;49961;43.970;22.868;2023-07-13T00:07:44;101206.50;;;25.71;100.00
63808;BME280;49961;43.970;22.868;2023-07-13T00:08:46;101266.47;;;26.08;100.00
63808;BME280;49961;43.970;22.868;2023-07-13T00:09:48;101266.19;;;26.11;100.00
63808;BME280;49961;43.970;22.868;2023-07-13T00:10:52;101174.59;;;25.54;100.00
63808;BME280;49961;43.970;22.868;2023-07-13T00:11:56;101256.34;;;26.18;100.00
63808;BME280;49961;43.970;22.868;2023-07-13T00:12:57;101259.97;;;26.18;100.00
63808;BME280;49961;43.970;22.868;2023-07-13T00:13:57;101263.09;;;26.15;100.00
63808;BME280;49961;43.970;22.868;2023-07-13T00:14:59;101266.47;;;26.08;100.00
63808;BME280;49961;43.970;22.868;2023-07-13T00:16:00;101260.06;;;26.02;100.00
63808;BME280;49961;43.970;22.868;2023-07-13T00:17:01;101261.63;;;25.97;100.00
63808;BME280;49961;43.970;22.868;2023-07-13T00:18:01;101079.38;;;24.90;100.00
63808;BME280;49961;43.970;22.868;2023-07-13T00:19:02;101159.44;;;25.40;100.00
63808;BME280;49961;43.970;22.868;2023-07-13T00:20:03;101250.97;;;26.09;100.00
63808;BME280;49961;43.970;22.868;2023-07-13T00:21:04;101249.94;;;26.12;100.00
63808;BME280;49961;43.970;22.868;2023-07-13T00:22:07;101175.81;;;25.64;100.00
63808;BME280;49961;43.970;22.868;2023-07-13T00:23:07;101185.09;;;25.70;100.00
63808;BME280;49961;43.970;22.868;2023-07-13T00:24:11;101258.66;;;26.19;100.00
63808;BME280;49961;43.970;22.868;2023-07-13T00:25:15;101260.72;;;26.19;100.00
63808;BME280;49961;43.970;22.868;2023-07-13T00:26:16;101254.03;;;26.16;100.00
63808;BME280;49961;43.970;22.868;2023-07-13T00:27:17;101256.91;;;26.11;100.00
63808;BME280;49961;43.970;22.868;2023-07-13T00:28:18;101256.13;;;26.10;100.00
63808;BME280;49961;43.970;22.868;2023-07-13T00:29:19;101256.41;;;26.12;100.00
63808;BME280;49961;43.970;22.868;2023-07-13T00:30:21;101255.34;;;26.15;100.00
63808;BME280;49961;43.970;22.868;2023-07-13T00:31:22;101253.28;;;26.16;100.00
63808;BME280;49961;43.970;22.868;2023-07-13T00:32:22;101258.44;;;26.17;100.00
63808;BME280;49961;43.970;22.868;2023-07-13T00:33:23;101258.66;;;26.19;100.00
63808;BME280;49961;43.970;22.868;2023-07-13T00:34:23;101258.91;;;26.21;100.00
63808;BME280;49961;43.970;22.868;2023-07-13T00:35:25;101161.91;;;25.60;100.00
63808;BME280;49961;43.970;22.868;2023-07-13T00:36:26;101249.88;;;26.23;100.00
63808;BME280;49961;43.970;22.868;2023-07-13T00:37:26;101148.78;;;25.52;100.00
63808;BME280;49961;43.970;22.868;2023-07-13T00:38:27;101247.81;;;26.18;100.00
63808;BME280;49961;43.970;22.868;2023-07-13T00:39:27;101227.72;;;26.10;100.00
63808;BME280;49961;43.970;22.868;2023-07-13T00:40:28;101226.75;;;26.02;100.00
63808;BME280;49961;43.970;22.868;2023-07-13T00:41:28;101245.78;;;26.18;100.00
63808;BME280;49961;43.970;22.868;2023-07-13T00:42:29;101242.16;;;26.18;100.00
63808;BME280;49961;43.970;22.868;2023-07-13T00:43:29;101151.84;;;25.59;100.00
63808;BME280;49961;43.970;22.868;2023-07-13T00:44:30;101239.06;;;26.16;100.00
63808;BME280;49961;43.970;22.868;2023-07-13T00:46:32;101241.91;;;26.16;100.00
63808;BME280;49961;43.970;22.868;2023-07-13T00:47:33;101235.44;;;26.15;100.00
63808;BME280;49961;43.970;22.868;2023-07-13T00:48:35;101236.75;;;26.14;100.00
63808;BME280;49961;43.970;22.868;2023-07-13T00:49:37;101098.34;;;25.23;100.00
63808;BME280;49961;43.970;22.868;2023-07-13T00:50:38;101124.34;;;25.38;100.00
63808;BME280;49961;43.970;22.868;2023-07-13T00:51:52;101245.78;;;26.13;100.00
63808;BME280;49961;43.970;22.868;2023-07-13T00:52:54;101241.19;;;26.10;100.00
63808;BME280;49961;43.970;22.868;2023-07-13T00:54:00;101239.59;;;26.09;100.00
63808;BME280;49961;43.970;22.868;2023-07-13T00:55:03;101243.25;;;26.04;100.00
63808;BME280;49961;43.970;22.868;2023-07-13T00:56:04;101235.75;;;26.06;100.00
63808;BME280;49961;43.970;22.868;2023-07-13T00:57:12;101192.00;;;25.74;100.00
63808;BME280;49961;43.970;22.868;2023-07-13T00:58:14;101175.81;;;25.64;100.00
63808;BME280;49961;43.970;22.868;2023-07-13T00:59:16;101240.16;;;26.07;100.00
63808;BME280;49961;43.970;22.868;2023-07-13T01:00:20;101171.69;;;25.59;100.00
63808;BME280;49961;43.970;22.868;2023-07-13T01:01:22;101237.34;;;26.02;100.00
63808;BME280;49961;43.970;22.868;2023-07-13T01:02:24;101248.41;;;26.05;100.00
63808;BME280;49961;43.970;22.868;2023-07-13T01:03:24;101245.56;;;26.05;100.00
63808;BME280;49961;43.970;22.868;2023-07-13T01:04:25;101244.56;;;26.03;100.00
63808;BME280;49961;43.970;22.868;2023-07-13T01:05:26;101239.16;;;25.99;100.00
63808;BME280;49961;43.970;22.868;2023-07-13T01:06:28;101154.72;;;25.48;100.00
63808;BME280;49961;43.970;22.868;2023-07-13T01:07:28;101239.94;;;26.00;100.00
63808;BME280;49961;43.970;22.868;2023-07-13T01:08:28;101232.19;;;26.00;100.00
63808;BME280;49961;43.970;22.868;2023-07-13T01:09:29;101233.47;;;25.99;100.00
63808;BME280;49961;43.970;22.868;2023-07-13T01:10:29;101226.25;;;25.98;100.00
63808;BME280;49961;43.970;22.868;2023-07-13T01:11:39;101231.94;;;25.98;100.00
63808;BME280;49961;43.970;22.868;2023-07-13T01:12:40;101236.09;;;25.97;100.00
63808;BME280;49961;43.970;22.868;2023-07-13T01:13:40;101235.56;;;25.93;100.00
63808;BME280;49961;43.970;22.868;2023-07-13T01:14:41;101203.88;;;25.73;100.00
63808;BME280;49961;43.970;22.868;2023-07-13T01:15:42;101229.66;;;25.91;100.00
63808;BME280;49961;43.970;22.868;2023-07-13T01:16:45;101237.38;;;25.91;100.00
63808;BME280;49961;43.970;22.868;2023-07-13T01:17:47;101235.84;;;25.90;100.00
63808;BME280;49961;43.970;22.868;2023-07-13T01:18:47;101238.66;;;25.90;100.00
63808;BME280;49961;43.970;22.868;2023-07-13T01:19:48;101243.03;;;25.91;100.00
63808;BME280;49961;43.970;22.868;2023-07-13T01:20:57;101243.03;;;25.91;100.00
63808;BME280;49961;43.970;22.868;2023-07-13T01:21:58;101234.78;;;25.93;100.00
63808;BME280;49961;43.970;22.868;2023-07-13T01:22:58;101235.03;;;25.89;100.00
63808;BME280;49961;43.970;22.868;2023-07-13T01:24:00;101158.91;;;25.36;100.00
63808;BME280;49961;43.970;22.868;2023-07-13T01:25:00;101229.94;;;25.82;100.00
63808;BME280;49961;43.970;22.868;2023-07-13T01:26:01;101243.59;;;25.84;100.00
63808;BME280;49961;43.970;22.868;2023-07-13T01:27:02;101236.34;;;25.83;100.00
63808;BME280;49961;43.970;22.868;2023-07-13T01:28:04;101258.31;;;25.82;100.00
63808;BME280;49961;43.970;22.868;2023-07-13T01:29:05;101247.25;;;25.79;100.00
63808;BME280;49961;43.970;22.868;2023-07-13T01:30:06;101244.13;;;25.77;100.00
63808;BME280;49961;43.970;22.868;2023-07-13T01:31:06;101152.25;;;25.17;100.00
63808;BME280;49961;43.970;22.868;2023-07-13T01:32:15;101236.41;;;25.72;100.00
63808;BME280;49961;43.970;22.868;2023-07-13T01:33:17;101230.00;;;25.66;100.00
63808;BME280;49961;43.970;22.868;2023-07-13T01:34:18;101229.72;;;25.69;100.00
63808;BME280;49961;43.970;22.868;2023-07-13T01:35:18;101236.47;;;25.66;100.00
63808;BME280;49961;43.970;22.868;2023-07-13T01:36:19;101234.88;;;25.65;100.00
63808;BME280;49961;43.970;22.868;2023-07-13T01:37:25;101143.03;;;25.00;100.00
63808;BME280;49961;43.970;22.868;2023-07-13T01:38:26;101234.16;;;25.59;100.00
63808;BME280;49961;43.970;22.868;2023-07-13T01:39:26;101231.84;;;25.58;100.00
63808;BME280;49961;43.970;22.868;2023-07-13T01:40:28;101233.13;;;25.57;100.00
63808;BME280;49961;43.970;22.868;2023-07-13T01:41:29;101205.84;;;25.37;100.00
63808;BME280;49961;43.970;22.868;2023-07-13T01:42:29;101131.22;;;24.85;100.00
63808;BME280;49961;43.970;22.868;2023-07-13T01:43:30;101212.53;;;25.45;100.00
63808;BME280;49961;43.970;22.868;2023-07-13T01:44:30;101225.66;;;25.48;100.00
63808;BME280;49961;43.970;22.868;2023-07-13T01:45:31;101189.13;;;25.23;100.00
63808;BME280;49961;43.970;22.868;2023-07-13T01:46:32;101176.00;;;25.03;100.00
63808;BME280;49961;43.970;22.868;2023-07-13T01:47:33;101226.00;;;25.34;100.00
63808;BME280;49961;43.970;22.868;2023-07-13T01:48:33;101224.97;;;25.31;100.00
63808;BME280;49961;43.970;22.868;2023-07-13T01:49:34;101227.28;;;25.27;100.00
63808;BME280;49961;43.970;22.868;2023-07-13T01:50:34;101124.00;;;24.57;100.00
63808;BME280;49961;43.970;22.868;2023-07-13T01:51:35;101229.06;;;25.25;100.00
63808;BME280;49961;43.970;22.868;2023-07-13T01:52:35;101234.22;;;25.21;100.00
63808;BME280;49961;43.970;22.868;2023-07-13T01:53:36;101227.00;;;25.20;100.00
63808;BME280;49961;43.970;22.868;2023-07-13T01:54:36;101225.22;;;25.22;100.00
63808;BME280;49961;43.970;22.868;2023-07-13T01:55:37;101144.66;;;24.68;100.00
63808;BME280;49961;43.970;22.868;2023-07-13T01:56:38;101224.19;;;25.20;100.00
63808;BME280;49961;43.970;22.868;2023-07-13T01:57:39;101229.06;;;25.19;100.00
63808;BME280;49961;43.970;22.868;2023-07-13T01:58:40;101229.63;;;25.18;100.00
63808;BME280;49961;43.970;22.868;2023-07-13T01:59:40;101225.22;;;25.17;100.00
63808;BME280;49961;43.970;22.868;2023-07-13T02:00:41;101219.84;;;25.08;100.00
63808;BME280;49961;43.970;22.868;2023-07-13T02:01:41;101227.28;;;25.16;100.00
63808;BME280;49961;43.970;22.868;2023-07-13T02:02:42;101221.38;;;25.14;100.00
63808;BME280;49961;43.970;22.868;2023-07-13T02:03:43;101224.19;;;25.03;100.00
63808;BME280;49961;43.970;22.868;2023-07-13T02:04:43;101191.50;;;24.86;100.00
63808;BME280;49961;43.970;22.868;2023-07-13T02:05:44;101143.59;;;24.49;100.00
63808;BME280;49961;43.970;22.868;2023-07-13T02:06:45;101219.31;;;24.98;100.00
63808;BME280;49961;43.970;22.868;2023-07-13T02:07:45;101233.50;;;24.98;100.00
63808;BME280;49961;43.970;22.868;2023-07-13T02:08:46;101235.28;;;24.96;100.00
63808;BME280;49961;43.970;22.868;2023-07-13T02:09:46;101232.72;;;24.92;100.00
63808;BME280;49961;43.970;22.868;2023-07-13T02:10:47;101231.69;;;24.90;100.00
63808;BME280;49961;43.970;22.868;2023-07-13T02:11:47;101226.03;;;24.90;100.00
63808;BME280;49961;43.970;22.868;2023-07-13T02:12:49;101168.06;;;24.47;100.00
63808;BME280;49961;43.970;22.868;2023-07-13T02:13:51;101203.63;;;24.75;100.00
63808;BME280;49961;43.970;22.868;2023-07-13T02:14:52;101224.47;;;24.83;100.00
63808;BME280;49961;43.970;22.868;2023-07-13T02:15:52;101220.38;;;24.84;100.00
63808;BME280;49961;43.970;22.868;2023-07-13T02:16:52;101236.06;;;24.91;100.00
63808;BME280;49961;43.970;22.868;2023-07-13T02:17:53;101226.53;;;24.88;100.00
63808;BME280;49961;43.970;22.868;2023-07-13T02:18:54;101179.13;;;24.50;100.00
63808;BME280;49961;43.970;22.868;2023-07-13T02:19:55;101219.59;;;24.78;100.00
63808;BME280;49961;43.970;22.868;2023-07-13T02:20:55;101237.38;;;24.84;100.00
63808;BME280;49961;43.970;22.868;2023-07-13T02:21:56;101229.91;;;24.81;100.00
63808;BME280;49961;43.970;22.868;2023-07-13T02:22:56;101242.53;;;24.80;100.00
63808;BME280;49961;43.970;22.868;2023-07-13T02:23:57;101170.13;;;24.35;100.00
63808;BME280;49961;43.970;22.868;2023-07-13T02:24:57;101243.31;;;24.75;100.00
63808;BME280;49961;43.970;22.868;2023-07-13T02:25:59;101228.09;;;24.67;100.00
63808;BME280;49961;43.970;22.868;2023-07-13T02:27:00;101113.66;;;23.88;100.00
63808;BME280;49961;43.970;22.868;2023-07-13T02:28:01;101241.25;;;24.65;100.00
63808;BME280;49961;43.970;22.868;2023-07-13T02:29:01;101241.50;;;24.67;100.00
63808;BME280;49961;43.970;22.868;2023-07-13T02:30:01;101240.72;;;24.66;100.00
63808;BME280;49961;43.970;22.868;2023-07-13T02:31:08;101242.81;;;24.66;100.00
63808;BME280;49961;43.970;22.868;2023-07-13T02:32:08;101231.41;;;24.55;100.00
63808;BME280;49961;43.970;22.868;2023-07-13T02:33:09;101238.13;;;24.57;100.00
63808;BME280;49961;43.970;22.868;2023-07-13T02:34:09;101249.00;;;24.64;100.00
63808;BME280;49961;43.970;22.868;2023-07-13T02:35:10;101252.84;;;24.67;100.00
63808;BME280;49961;43.970;22.868;2023-07-13T02:36:11;101247.94;;;24.67;100.00
63808;BME280;49961;43.970;22.868;2023-07-13T02:37:12;101239.19;;;24.60;100.00
63808;BME280;49961;43.970;22.868;2023-07-13T02:38:12;101249.50;;;24.68;100.00
63808;BME280;49961;43.970;22.868;2023-07-13T02:39:13;101253.59;;;24.67;100.00
63808;BME280;49961;43.970;22.868;2023-07-13T02:40:13;101256.44;;;24.67;100.00
63808;BME280;49961;43.970;22.868;2023-07-13T02:41:14;101244.63;;;24.63;100.00
63808;BME280;49961;43.970;22.868;2023-07-13T02:42:14;101252.06;;;24.66;100.00
63808;BME280;49961;43.970;22.868;2023-07-13T02:43:15;101254.41;;;24.68;100.00
63808;BME280;49961;43.970;22.868;2023-07-13T02:44:15;101237.09;;;24.55;100.00
63808;BME280;49961;43.970;22.868;2023-07-13T02:45:16;101193.28;;;24.28;100.00
63808;BME280;49961;43.970;22.868;2023-07-13T02:46:16;101253.88;;;24.69;100.00
63808;BME280;49961;43.970;22.868;2023-07-13T02:47:17;101254.91;;;24.66;100.00
63808;BME280;49961;43.970;22.868;2023-07-13T02:48:17;101185.81;;;24.20;100.00
63808;BME280;49961;43.970;22.868;2023-07-13T02:49:17;101257.50;;;24.64;100.00
63808;BME280;49961;43.970;22.868;2023-07-13T02:50:18;101249.25;;;24.61;100.00
63808;BME280;49961;43.970;22.868;2023-07-13T02:51:19;101257.47;;;24.59;100.00
63808;BME280;49961;43.970;22.868;2023-07-13T02:52:19;101256.97;;;24.60;100.00
63808;BME280;49961;43.970;22.868;2023-07-13T02:53:20;101257.94;;;24.57;100.00
63808;BME280;49961;43.970;22.868;2023-07-13T02:54:20;101257.97;;;24.52;100.00
63808;BME280;49961;43.970;22.868;2023-07-13T02:55:21;101254.34;;;24.51;100.00
63808;BME280;49961;43.970;22.868;2023-07-13T02:56:26;101259.25;;;24.51;100.00
63808;BME280;49961;43.970;22.868;2023-07-13T02:57:27;101254.59;;;24.42;100.00
63808;BME280;49961;43.970;22.868;2023-07-13T02:58:28;101135.19;;;23.52;100.00
63808;BME280;49961;43.970;22.868;2023-07-13T02:59:28;101264.88;;;24.40;100.00
63808;BME280;49961;43.970;22.868;2023-07-13T03:00:29;101267.72;;;24.40;100.00
63808;BME280;49961;43.970;22.868;2023-07-13T03:01:30;101258.72;;;24.36;100.00
63808;BME280;49961;43.970;22.868;2023-07-13T03:02:30;101267.97;;;24.36;100.00
63808;BME280;49961;43.970;22.868;2023-07-13T03:03:31;101261.81;;;24.32;100.00
63808;BME280;49961;43.970;22.868;2023-07-13T03:04:31;101268.25;;;24.38;100.00
63808;BME280;49961;43.970;22.868;2023-07-13T03:05:31;101274.16;;;24.35;100.00
63808;BME280;49961;43.970;22.868;2023-07-13T03:06:33;101192.88;;;23.77;100.00
63808;BME280;49961;43.970;22.868;2023-07-13T03:07:33;101279.06;;;24.34;100.00
63808;BME280;49961;43.970;22.868;2023-07-13T03:08:34;101284.97;;;24.36;100.00
63808;BME280;49961;43.970;22.868;2023-07-13T03:09:35;101265.13;;;24.25;100.00
63808;BME280;49961;43.970;22.868;2023-07-13T03:10:36;101279.56;;;24.33;100.00
63808;BME280;49961;43.970;22.868;2023-07-13T03:11:36;101275.19;;;24.32;100.00
63808;BME280;49961;43.970;22.868;2023-07-13T03:12:37;101274.69;;;24.33;100.00
63808;BME280;49961;43.970;22.868;2023-07-13T03:13:38;101281.09;;;24.28;100.00
63808;BME280;49961;43.970;22.868;2023-07-13T03:14:38;101275.94;;;24.27;100.00
63808;BME280;49961;43.970;22.868;2023-07-13T03:15:39;101270.28;;;24.27;100.00
63808;BME280;49961;43.970;22.868;2023-07-13T03:16:39;101247.31;;;24.08;100.00
63808;BME280;49961;43.970;22.868;2023-07-13T03:17:40;101272.84;;;24.25;100.00
63808;BME280;49961;43.970;22.868;2023-07-13T03:18:40;101273.63;;;24.25;100.00
63808;BME280;49961;43.970;22.868;2023-07-13T03:19:41;101276.44;;;24.20;100.00
63808;BME280;49961;43.970;22.868;2023-07-13T03:20:42;101272.84;;;24.19;100.00
63808;BME280;49961;43.970;22.868;2023-07-13T03:21:42;101287.78;;;24.20;100.00
63808;BME280;49961;43.970;22.868;2023-07-13T03:22:43;101274.63;;;24.17;100.00
63808;BME280;49961;43.970;22.868;2023-07-13T03:23:43;101283.91;;;24.17;100.00
63808;BME280;49961;43.970;22.868;2023-07-13T03:24:44;101248.00;;;23.87;100.00
63808;BME280;49961;43.970;22.868;2023-07-13T03:25:45;101286.47;;;24.15;100.00
63808;BME280;49961;43.970;22.868;2023-07-13T03:26:45;101284.16;;;24.19;100.00
63808;BME280;49961;43.970;22.868;2023-07-13T03:27:45;101281.06;;;24.23;100.00
63808;BME280;49961;43.970;22.868;2023-07-13T03:28:46;101290.34;;;24.23;100.00
63808;BME280;49961;43.970;22.868;2023-07-13T03:29:47;101280.81;;;24.21;100.00
63808;BME280;49961;43.970;22.868;2023-07-13T03:30:47;101280.59;;;24.30;100.00
63808;BME280;49961;43.970;22.868;2023-07-13T03:31:47;101280.59;;;24.35;100.00
63808;BME280;49961;43.970;22.868;2023-07-13T03:32:48;101278.00;;;24.37;100.00
63808;BME280;49961;43.970;22.868;2023-07-13T03:33:48;101229.53;;;24.08;100.00
63808;BME280;49961;43.970;22.868;2023-07-13T03:34:49;101265.91;;;24.42;100.00
63808;BME280;49961;43.970;22.868;2023-07-13T03:35:49;101268.53;;;24.46;100.00
63808;BME280;49961;43.970;22.868;2023-07-13T03:36:50;101142.19;;;23.68;100.00
63808;BME280;49961;43.970;22.868;2023-07-13T03:37:50;101263.88;;;24.54;100.00
63808;BME280;49961;43.970;22.868;2023-07-13T03:38:54;101269.81;;;24.56;100.00
63808;BME280;49961;43.970;22.868;2023-07-13T03:39:55;101268.53;;;24.57;100.00
63808;BME280;49961;43.970;22.868;2023-07-13T03:40:55;101263.63;;;24.57;100.00
63808;BME280;49961;43.970;22.868;2023-07-13T03:41:56;101265.47;;;24.60;100.00
63808;BME280;49961;43.970;22.868;2023-07-13T03:42:56;101265.22;;;24.64;100.00
63808;BME280;49961;43.970;22.868;2023-07-13T03:43:57;101260.84;;;24.68;100.00
63808;BME280;49961;43.970;22.868;2023-07-13T03:44:57;101268.06;;;24.69;100.00
63808;BME280;49961;43.970;22.868;2023-07-13T03:45:58;101268.56;;;24.73;100.00
63808;BME280;49961;43.970;22.868;2023-07-13T03:46:58;101268.31;;;24.77;100.00
63808;BME280;49961;43.970;22.868;2023-07-13T03:47:58;101266.25;;;24.77;100.00
63808;BME280;49961;43.970;22.868;2023-07-13T03:48:59;101278.88;;;24.82;100.00
63808;BME280;49961;43.970;22.868;2023-07-13T03:50:00;101269.84;;;24.83;100.00
63808;BME280;49961;43.970;22.868;2023-07-13T03:51:00;101267.81;;;24.89;100.00
63808;BME280;49961;43.970;22.868;2023-07-13T03:52:01;101273.44;;;24.95;100.00
63808;BME280;49961;43.970;22.868;2023-07-13T03:53:01;101275.78;;;24.96;100.00
63808;BME280;49961;43.970;22.868;2023-07-13T03:54:02;101276.03;;;24.98;100.00
63808;BME280;49961;43.970;22.868;2023-07-13T03:55:03;101249.25;;;24.83;100.00
63808;BME280;49961;43.970;22.868;2023-07-13T03:56:03;101273.97;;;25.04;100.00
63808;BME280;49961;43.970;22.868;2023-07-13T03:57:04;101278.09;;;25.03;100.00
63808;BME280;49961;43.970;22.868;2023-07-13T03:58:34;101280.41;;;25.05;100.00
63808;BME280;49961;43.970;22.868;2023-07-13T03:59:35;101274.47;;;25.08;100.00
63808;BME280;49961;43.970;22.868;2023-07-13T04:00:35;101276.28;;;25.06;100.00
63808;BME280;49961;43.970;22.868;2023-07-13T04:01:36;101272.44;;;25.14;100.00
63808;BME280;49961;43.970;22.868;2023-07-13T04:02:36;101272.44;;;25.14;100.00
63808;BME280;49961;43.970;22.868;2023-07-13T04:03:38;101246.38;;;24.88;100.00
63808;BME280;49961;43.970;22.868;2023-07-13T04:04:38;101267.78;;;25.17;100.00
63808;BME280;49961;43.970;22.868;2023-07-13T04:05:40;101277.56;;;25.21;100.00
63808;BME280;49961;43.970;22.868;2023-07-13T04:06:41;101274.47;;;25.25;100.00
63808;BME280;49961;43.970;22.868;2023-07-13T04:07:41;101273.47;;;25.28;100.00
63808;BME280;49961;43.970;22.868;2023-07-13T04:08:42;101267.25;;;25.29;100.00
63808;BME280;49961;43.970;22.868;2023-07-13T04:09:42;101276.03;;;25.31;100.00
63808;BME280;49961;43.970;22.868;2023-07-13T04:10:43;101184.31;;;24.74;100.00
63808;BME280;49961;43.970;22.868;2023-07-13T04:11:44;101276.78;;;25.37;100.00
63808;BME280;49961;43.970;22.868;2023-07-13T04:12:44;101272.13;;;25.40;100.00
63808;BME280;49961;43.970;22.868;2023-07-13T04:13:45;101136.66;;;24.56;100.00
63808;BME280;49961;43.970;22.868;2023-07-13T04:14:46;101272.13;;;25.45;100.00
63808;BME280;49961;43.970;22.868;2023-07-13T04:15:46;101271.34;;;25.45;100.00
63808;BME280;49961;43.970;22.868;2023-07-13T04:16:46;101268.75;;;25.47;100.00
63808;BME280;49961;43.970;22.868;2023-07-13T04:17:47;101279.59;;;25.48;100.00
63808;BME280;49961;43.970;22.868;2023-07-13T04:18:48;101268.75;;;25.52;100.00
63808;BME280;49961;43.970;22.868;2023-07-13T04:19:49;101268.25;;;25.54;100.00
63808;BME280;49961;43.970;22.868;2023-07-13T04:20:50;101217.72;;;25.25;100.00
63808;BME280;49961;43.970;22.868;2023-07-13T04:21:50;101269.00;;;25.60;100.00
63808;BME280;49961;43.970;22.868;2023-07-13T04:22:51;101275.19;;;25.64;100.00
63808;BME280;49961;43.970;22.868;2023-07-13T04:23:53;101276.19;;;25.66;100.00
63808;BME280;49961;43.970;22.868;2023-07-13T04:24:54;101266.66;;;25.64;100.00
63808;BME280;49961;43.970;22.868;2023-07-13T04:25:54;101291.53;;;26.09;100.00
63808;BME280;49961;43.970;22.868;2023-07-13T04:26:55;101292.09;;;26.43;100.00
63808;BME280;49961;43.970;22.868;2023-07-13T04:27:59;101278.91;;;26.86;100.00
63808;BME280;49961;43.970;22.868;2023-07-13T04:29:00;101230.28;;;26.89;100.00
63808;BME280;49961;43.970;22.868;2023-07-13T04:30:00;101276.91;;;27.58;100.00
63808;BME280;49961;43.970;22.868;2023-07-13T04:31:01;101247.38;;;27.61;100.00
63808;BME280;49961;43.970;22.868;2023-07-13T04:32:01;101283.31;;;28.07;100.00
63808;BME280;49961;43.970;22.868;2023-07-13T04:33:02;101281.94;;;28.13;100.00
63808;BME280;49961;43.970;22.868;2023-07-13T04:34:02;101224.34;;;27.83;100.00
63808;BME280;49961;43.970;22.868;2023-07-13T04:35:03;101279.94;;;28.27;100.00
63808;BME280;49961;43.970;22.868;2023-07-13T04:36:05;101276.09;;;28.43;100.00
63808;BME280;49961;43.970;22.868;2023-07-13T04:37:05;101259.91;;;28.51;100.00
63808;BME280;49961;43.970;22.868;2023-07-13T04:38:06;101265.97;;;28.60;100.00
63808;BME280;49961;43.970;22.868;2023-07-13T04:39:07;101252.81;;;28.57;100.00
63808;BME280;49961;43.970;22.868;2023-07-13T04:40:08;101256.56;;;28.65;100.00
63808;BME280;49961;43.970;22.868;2023-07-13T04:41:13;101272.19;;;28.77;100.00
63808;BME280;49961;43.970;22.868;2023-07-13T04:42:14;101284.81;;;28.82;100.00
63808;BME280;49961;43.970;22.868;2023-07-13T04:43:15;101272.44;;;28.92;100.00
63808;BME280;49961;43.970;22.868;2023-07-13T04:44:15;101261.59;;;28.91;100.00
63808;BME280;49961;43.970;22.868;2023-07-13T04:45:17;101253.13;;;28.85;100.00
63808;BME280;49961;43.970;22.868;2023-07-13T04:46:18;101238.41;;;28.81;100.00
63808;BME280;49961;43.970;22.868;2023-07-13T04:47:19;101273.28;;;29.06;100.00
63808;BME280;49961;43.970;22.868;2023-07-13T04:48:20;101273.59;;;29.02;100.00
63808;BME280;49961;43.970;22.868;2023-07-13T04:49:20;101277.22;;;29.03;100.00
63808;BME280;49961;43.970;22.868;2023-07-13T04:50:21;101290.72;;;29.02;100.00
63808;BME280;49961;43.970;22.868;2023-07-13T04:51:23;101279.16;;;28.95;100.00
63808;BME280;49961;43.970;22.868;2023-07-13T04:52:24;101233.22;;;28.67;100.00
63808;BME280;49961;43.970;22.868;2023-07-13T04:53:25;101250.72;;;28.89;100.00
63808;BME280;49961;43.970;22.868;2023-07-13T04:54:26;101254.72;;;28.99;100.00
63808;BME280;49961;43.970;22.868;2023-07-13T04:55:27;101277.25;;;29.16;100.00
63808;BME280;49961;43.970;22.868;2023-07-13T04:56:30;101261.44;;;29.15;100.00
63808;BME280;49961;43.970;22.868;2023-07-13T04:57:31;101270.25;;;29.17;100.00
63808;BME280;49961;43.970;22.868;2023-07-13T04:58:32;101180.97;;;28.59;100.00
63808;BME280;49961;43.970;22.868;2023-07-13T04:59:34;101279.91;;;29.27;100.00
63808;BME280;49961;43.970;22.868;2023-07-13T05:00:34;101276.75;;;29.30;100.00
63808;BME280;49961;43.970;22.868;2023-07-13T05:01:35;101280.91;;;29.29;100.00
63808;BME280;49961;43.970;22.868;2023-07-13T05:02:38;101289.03;;;29.25;100.00
63808;BME280;49961;43.970;22.868;2023-07-13T05:03:39;101249.56;;;28.98;100.00
63808;BME280;49961;43.970;22.868;2023-07-13T05:04:39;101292.63;;;29.26;100.00
63808;BME280;49961;43.970;22.868;2023-07-13T05:05:40;101292.63;;;29.26;100.00
63808;BME280;49961;43.970;22.868;2023-07-13T05:06:40;101282.78;;;29.27;100.00
63808;BME280;49961;43.970;22.868;2023-07-13T05:07:41;101287.38;;;29.30;100.00
63808;BME280;49961;43.970;22.868;2023-07-13T05:08:41;101287.91;;;29.28;100.00
63808;BME280;49961;43.970;22.868;2023-07-13T05:09:41;101288.50;;;29.27;100.00
63808;BME280;49961;43.970;22.868;2023-07-13T05:10:42;101290.78;;;29.28;100.00
63808;BME280;49961;43.970;22.868;2023-07-13T05:11:43;101284.06;;;29.26;100.00
63808;BME280;49961;43.970;22.868;2023-07-13T05:12:44;101290.13;;;29.35;100.00